Harmon, Ohio
Current Conditions -  °F | °C
As of 10:51 AM on Saturday 20 Dec 2014 (Local Time) from KCAK Reporting Station
Overcast Overcast  
Wind Chill: 29°   Ceiling: 2200
Heat Index: 29°   Visibility: 10mi
Dew Point: 18°   Wind: 0mph
Humidity: 64%   Direction: NA
Pressure: 30.28"   Gusts: NA
Location:  40.7079°N, 81.5547°W
Report Text: KCAK 201551Z 00000KT 10SM OVC022 M02/M08 A3028 RMK AO2 SLP269 T10171078
Loading
Personal Weather Stations






























Interactive Weather Map New forecast layout! Learn more

10-Day Weather Forecast

Advertisements
Track Severe Weather on mobile